ADDS METAR Data INFO
IDs: Format: Raw Decoded Include TAF

Data at: 1900 UTC 22 Sep 2017

METAR for:PAOU (Nelson Lagoon Arpt, AK, US)
Text:PAOU 221856Z AUTO 32009KT 7SM -RA OVC005 09/09 A2958 RMK AO2 CIG 004V010 SLP018 P0002 T00890089
Temperature: 8.9°C ( 48°F)
Dewpoint: 8.9°C ( 48°F) [RH = 100%]
Pressure (altimeter):29.58 inches Hg (1001.8 mb) [Sea level pressure: 1001.8 mb]
Winds:from the NW (320 degrees) at 10 MPH (9 knots; 4.6 m/s)
Visibility: 7 sm ( 11 km)
Ceiling:500 feet AGL
Clouds: overcast cloud deck at 500 feet AGL
Weather:-RA (light rain)
QC Flag:automated observation with no human augmentation
Text:PAOU 221821Z AUTO 32011KT 4SM -RA BR BKN005 OVC021 08/08 A2959 RMK AO2 CIG 003V009 P0001
Temperature: 8.0°C ( 46°F)
Dewpoint: 8.0°C ( 46°F) [RH = 100%]
Pressure (altimeter):29.59 inches Hg (1002.1 mb)
Winds:from the NW (320 degrees) at 13 MPH (11 knots; 5.7 m/s)
Visibility: 4 sm ( 6 km)
Ceiling:500 feet AGL
Clouds: broken clouds at 500 feet AGL, overcast cloud deck at 2100 feet AGL
Weather:-RA BR (light rain, mist)
QC Flag:automated observation with no human augmentation
Text:PAOU 221756Z AUTO 33010KT 2 1/2SM -RA BR BKN005 OVC010 08/08 A2958 RMK AO2 CIG 003V009 SLP017 P0003 60008 T00830083 10089 20083 51001
Temperature: 8.3°C ( 47°F)
Dewpoint: 8.3°C ( 47°F) [RH = 100%]
Pressure (altimeter):29.58 inches Hg (1001.8 mb) [Sea level pressure: 1001.7 mb]
Winds:from the NNW (330 degrees) at 12 MPH (10 knots; 5.1 m/s)
Visibility: 2.50 sm ( 4.02 km)
Ceiling:500 feet AGL
Clouds: broken clouds at 500 feet AGL, overcast cloud deck at 1000 feet AGL
Weather:-RA BR (light rain, mist)
QC Flag:automated observation with no human augmentation
Text:PAOU 221752Z AUTO 33011KT 2 1/2SM -RA BR OVC005 08/08 A2958 RMK AO2 CIG 003V008 P0003
Temperature: 8.0°C ( 46°F)
Dewpoint: 8.0°C ( 46°F) [RH = 100%]
Pressure (altimeter):29.58 inches Hg (1001.8 mb)
Winds:from the NNW (330 degrees) at 13 MPH (11 knots; 5.7 m/s)
Visibility: 2.50 sm ( 4.02 km)
Ceiling:500 feet AGL
Clouds: overcast cloud deck at 500 feet AGL
Weather:-RA BR (light rain, mist)
QC Flag:automated observation with no human augmentation
Text:PAOU 221721Z AUTO 33009KT 1 3/4SM -RA BR BKN005 OVC022 08/08 A2958 RMK AO2 CIG 003V010 P0001
Temperature: 8.0°C ( 46°F)
Dewpoint: 8.0°C ( 46°F) [RH = 100%]
Pressure (altimeter):29.58 inches Hg (1001.8 mb)
Winds:from the NNW (330 degrees) at 10 MPH (9 knots; 4.6 m/s)
Visibility: 1.75 sm ( 2.82 km)
Ceiling:500 feet AGL
Clouds: broken clouds at 500 feet AGL, overcast cloud deck at 2200 feet AGL
Weather:-RA BR (light rain, mist)
QC Flag:automated observation with no human augmentation
Text:PAOU 221714Z AUTO 34009KT 2SM -RA BR SCT003 BKN007 OVC027 08/08 A2958 RMK AO2 CIG 005V010 P0001
Temperature: 8.0°C ( 46°F)
Dewpoint: 8.0°C ( 46°F) [RH = 100%]
Pressure (altimeter):29.58 inches Hg (1001.8 mb)
Winds:from the NNW (340 degrees) at 10 MPH (9 knots; 4.6 m/s)
Visibility: 2.00 sm ( 3.22 km)
Ceiling:700 feet AGL
Clouds: scattered clouds at 300 feet AGL, broken clouds at 700 feet AGL, overcast cloud deck at 2700 feet AGL
Weather:-RA BR (light rain, mist)
QC Flag:automated observation with no human augmentation
Text:PAOU 221704Z AUTO 33010KT 1 3/4SM -RA BR BKN005 OVC027 08/08 A2958 RMK AO2 CIG 003V009 P0001
Temperature: 8.0°C ( 46°F)
Dewpoint: 8.0°C ( 46°F) [RH = 100%]
Pressure (altimeter):29.58 inches Hg (1001.8 mb)
Winds:from the NNW (330 degrees) at 12 MPH (10 knots; 5.1 m/s)
Visibility: 1.75 sm ( 2.82 km)
Ceiling:500 feet AGL
Clouds: broken clouds at 500 feet AGL, overcast cloud deck at 2700 feet AGL
Weather:-RA BR (light rain, mist)
QC Flag:automated observation with no human augmentation
Text:PAOU 221656Z AUTO 34010KT 2SM -RA BR BKN003 BKN008 OVC025 08/08 A2958 RMK AO2 SLP017 P0002 T00830083
Temperature: 8.3°C ( 47°F)
Dewpoint: 8.3°C ( 47°F) [RH = 100%]
Pressure (altimeter):29.58 inches Hg (1001.8 mb) [Sea level pressure: 1001.7 mb]
Winds:from the NNW (340 degrees) at 12 MPH (10 knots; 5.1 m/s)
Visibility: 2.00 sm ( 3.22 km)
Ceiling:300 feet AGL
Clouds: broken clouds at 300 feet AGL, broken clouds at 800 feet AGL, overcast cloud deck at 2500 feet AGL
Weather:-RA BR (light rain, mist)
QC Flag:automated observation with no human augmentation
Text:PAOU 221632Z AUTO 33011KT 2SM -RA BR OVC005 08/08 A2958 RMK AO2 CIG 003V008 P0001
Temperature: 8.0°C ( 46°F)
Dewpoint: 8.0°C ( 46°F) [RH = 100%]
Pressure (altimeter):29.58 inches Hg (1001.8 mb)
Winds:from the NNW (330 degrees) at 13 MPH (11 knots; 5.7 m/s)
Visibility: 2.00 sm ( 3.22 km)
Ceiling:500 feet AGL
Clouds: overcast cloud deck at 500 feet AGL
Weather:-RA BR (light rain, mist)
QC Flag:automated observation with no human augmentation
Text:PAOU 221556Z AUTO 33011KT 5SM -RA BR OVC005 08/08 A2958 RMK AO2 CIG 003V010 SLP016 P0001 T00830083
Temperature: 8.3°C ( 47°F)
Dewpoint: 8.3°C ( 47°F) [RH = 100%]
Pressure (altimeter):29.58 inches Hg (1001.8 mb) [Sea level pressure: 1001.6 mb]
Winds:from the NNW (330 degrees) at 13 MPH (11 knots; 5.7 m/s)
Visibility: 5 sm ( 8 km)
Ceiling:500 feet AGL
Clouds: overcast cloud deck at 500 feet AGL
Weather:-RA BR (light rain, mist)
QC Flag:automated observation with no human augmentation
Text:PAOU 221456Z AUTO 34011KT 3SM -RA BR OVC003 08/08 A2958 RMK AO2 SLP016 P0001 60002 T00830083 51004
Temperature: 8.3°C ( 47°F)
Dewpoint: 8.3°C ( 47°F) [RH = 100%]
Pressure (altimeter):29.58 inches Hg (1001.8 mb) [Sea level pressure: 1001.6 mb]
Winds:from the NNW (340 degrees) at 13 MPH (11 knots; 5.7 m/s)
Visibility: 3 sm ( 5 km)
Ceiling:300 feet AGL
Clouds: overcast cloud deck at 300 feet AGL
Weather:-RA BR (light rain, mist)
QC Flag:automated observation with no human augmentation
Text:PAOU 221439Z AUTO 34013KT 3SM -RA BR OVC003 08/08 A2958 RMK AO2 P0001
Temperature: 8.0°C ( 46°F)
Dewpoint: 8.0°C ( 46°F) [RH = 100%]
Pressure (altimeter):29.58 inches Hg (1001.8 mb)
Winds:from the NNW (340 degrees) at 15 MPH (13 knots; 6.7 m/s)
Visibility: 3 sm ( 5 km)
Ceiling:300 feet AGL
Clouds: overcast cloud deck at 300 feet AGL
Weather:-RA BR (light rain, mist)
QC Flag:automated observation with no human augmentation
Text:PAOU 221417Z AUTO 34012KT 2SM -RA BR OVC003 09/09 A2958 RMK AO2 P0001
Temperature: 9.0°C ( 48°F)
Dewpoint: 9.0°C ( 48°F) [RH = 100%]
Pressure (altimeter):29.58 inches Hg (1001.8 mb)
Winds:from the NNW (340 degrees) at 14 MPH (12 knots; 6.2 m/s)
Visibility: 2.00 sm ( 3.22 km)
Ceiling:300 feet AGL
Clouds: overcast cloud deck at 300 feet AGL
Weather:-RA BR (light rain, mist)
QC Flag:automated observation with no human augmentation
Text:PAOU 221356Z AUTO 34011KT 3SM -RA BR OVC003 09/09 A2958 RMK AO2 SLP016 P0000 T00890089
Temperature: 8.9°C ( 48°F)
Dewpoint: 8.9°C ( 48°F) [RH = 100%]
Pressure (altimeter):29.58 inches Hg (1001.8 mb) [Sea level pressure: 1001.6 mb]
Winds:from the NNW (340 degrees) at 13 MPH (11 knots; 5.7 m/s)
Visibility: 3 sm ( 5 km)
Ceiling:300 feet AGL
Clouds: overcast cloud deck at 300 feet AGL
Weather:-RA BR (light rain, mist)
QC Flag:automated observation with no human augmentation

TAF for:PAOU (Nelson Lagoon Arpt, AK, US)
Text:No data found